createdAt,value
2023-04-27T00:01:11.082Z,93.60
2023-04-27T00:03:38.446Z,93.80
2023-04-27T00:06:05.528Z,94.10
2023-04-27T00:08:32.135Z,94.40
2023-04-27T00:10:58.727Z,94.80
2023-04-27T00:13:25.332Z,95.10
2023-04-27T00:15:51.948Z,95.40
2023-04-27T00:18:18.889Z,95.70
2023-04-27T00:20:45.423Z,96.00
2023-04-27T00:23:11.936Z,96.30
2023-04-27T00:25:38.711Z,95.90
2023-04-27T00:28:05.302Z,96.20
2023-04-27T00:30:31.881Z,96.40
2023-04-27T00:32:58.464Z,96.50
2023-04-27T00:35:25.013Z,96.70
2023-04-27T00:37:53.904Z,96.60
2023-04-27T00:40:21.215Z,96.60
2023-04-27T00:42:47.840Z,96.40
2023-04-27T00:45:14.404Z,96.20
2023-04-27T00:47:42.052Z,96.20
2023-04-27T00:50:10.340Z,96.20
2023-04-27T00:52:37.455Z,96.10
2023-04-27T00:55:05.363Z,96.50
2023-04-27T00:57:33.802Z,96.80
2023-04-27T01:00:00.720Z,96.60
2023-04-27T01:02:27.810Z,96.20
2023-04-27T01:04:55.329Z,96.10
2023-04-27T01:07:25.713Z,96.10
2023-04-27T01:09:52.679Z,96.50
2023-04-27T01:12:19.311Z,96.60
2023-04-27T01:14:46.122Z,96.90
2023-04-27T01:17:13.935Z,97.20
2023-04-27T01:19:41.038Z,97.40
2023-04-27T01:22:07.666Z,97.30
2023-04-27T01:24:34.266Z,97.50
2023-04-27T01:27:01.598Z,97.40
2023-04-27T01:29:28.382Z,97.40
2023-04-27T01:31:54.936Z,97.30
2023-04-27T01:34:21.706Z,97.50
2023-04-27T01:36:48.432Z,97.50
2023-04-27T01:39:15.392Z,97.80
2023-04-27T01:41:42.472Z,97.80
2023-04-27T01:44:08.986Z,98.10
2023-04-27T01:46:35.714Z,98.30
2023-04-27T01:49:02.361Z,98.20
2023-04-27T01:51:29.044Z,98.30
2023-04-27T01:53:55.648Z,98.60
2023-04-27T01:56:22.215Z,98.60
2023-04-27T01:58:48.788Z,98.80
2023-04-27T02:01:15.649Z,98.60
2023-04-27T02:03:42.390Z,99.00
2023-04-27T02:06:09.378Z,98.70
2023-04-27T02:08:36.151Z,98.40
2023-04-27T02:11:02.860Z,98.40
2023-04-27T02:13:29.378Z,98.60
2023-04-27T02:15:56.213Z,98.70
2023-04-27T02:18:22.974Z,98.60
2023-04-27T02:20:49.772Z,98.90
2023-04-27T02:23:16.589Z,98.80
2023-04-27T02:25:46.519Z,98.80
2023-04-27T02:28:14.143Z,98.70
2023-04-27T02:30:41.292Z,99.00
2023-04-27T02:33:08.030Z,98.90
2023-04-27T02:35:34.687Z,99.60
2023-04-27T02:38:01.513Z,99.90
2023-04-27T02:40:28.286Z,99.90
2023-04-27T02:42:54.883Z,99.90
2023-04-27T02:45:21.460Z,99.60
2023-04-27T02:47:48.779Z,99.40
2023-04-27T02:50:15.454Z,99.40
2023-04-27T02:52:42.074Z,99.20
2023-04-27T02:55:09.042Z,99.10
2023-04-27T02:57:35.618Z,98.90
2023-04-27T03:00:03.749Z,99.00
2023-04-27T03:02:30.743Z,99.10
2023-04-27T03:04:57.500Z,99.00
2023-04-27T03:07:24.101Z,98.80
2023-04-27T03:09:50.797Z,98.80
2023-04-27T03:12:17.457Z,99.00
2023-04-27T03:14:44.008Z,98.80
2023-04-27T03:17:10.698Z,99.20
2023-04-27T03:19:37.238Z,99.60
2023-04-27T03:22:03.770Z,99.70
2023-04-27T03:24:30.875Z,99.70
2023-04-27T03:26:57.399Z,99.80
2023-04-27T03:29:24.009Z,99.80
2023-04-27T03:31:50.739Z,99.90
2023-04-27T03:34:17.540Z,99.90
2023-04-27T03:36:44.065Z,99.90
2023-04-27T03:39:10.778Z,99.90
2023-04-27T03:41:37.372Z,99.90
2023-04-27T03:44:04.143Z,99.90
2023-04-27T03:46:30.792Z,99.90
2023-04-27T03:48:57.349Z,99.90
2023-04-27T03:51:24.254Z,99.90
2023-04-27T03:53:50.941Z,99.90
2023-04-27T03:56:17.573Z,99.90
2023-04-27T03:58:44.111Z,99.90
2023-04-27T04:01:11.179Z,99.90
2023-04-27T04:03:37.995Z,99.90
2023-04-27T04:06:04.880Z,99.90
2023-04-27T04:08:32.842Z,99.90
2023-04-27T04:10:59.806Z,99.90
2023-04-27T04:13:26.892Z,99.90
2023-04-27T04:16:07.528Z,99.90
2023-04-27T04:18:34.926Z,99.90
2023-04-27T04:21:01.783Z,99.90
2023-04-27T04:23:28.370Z,99.90
2023-04-27T04:25:58.418Z,99.90
2023-04-27T04:28:25.401Z,99.90
2023-04-27T04:30:52.250Z,99.90
2023-04-27T04:33:19.319Z,99.90
2023-04-27T04:35:46.840Z,99.90
2023-04-27T04:38:13.540Z,99.90
2023-04-27T04:40:41.749Z,99.90
2023-04-27T04:43:09.316Z,99.90
2023-04-27T04:45:36.477Z,99.90
2023-04-27T04:48:03.956Z,99.90
2023-04-27T04:50:30.649Z,99.90
2023-04-27T04:52:57.221Z,99.90
2023-04-27T04:55:27.015Z,99.90
2023-04-27T04:57:53.650Z,99.90
2023-04-27T05:00:20.513Z,99.90
2023-04-27T05:02:47.183Z,99.90
2023-04-27T05:05:13.801Z,99.90
2023-04-27T05:07:40.459Z,99.90
2023-04-27T05:10:07.397Z,99.90
2023-04-27T05:12:33.951Z,99.90
2023-04-27T05:15:00.625Z,99.90
2023-04-27T05:17:27.209Z,99.90
2023-04-27T05:19:53.853Z,99.90
2023-04-27T05:22:20.393Z,99.90
2023-04-27T05:24:48.797Z,99.90
2023-04-27T05:27:15.489Z,99.90
2023-04-27T05:29:42.164Z,99.90
2023-04-27T05:32:09.470Z,99.90
2023-04-27T05:34:36.651Z,99.90
2023-04-27T05:37:03.339Z,99.90
2023-04-27T05:39:29.864Z,99.90
2023-04-27T05:41:57.317Z,99.90
2023-04-27T05:44:28.170Z,99.90
2023-04-27T05:46:55.722Z,99.90
2023-04-27T05:49:22.452Z,99.90
2023-04-27T05:51:49.094Z,99.90
2023-04-27T05:54:15.687Z,99.90
2023-04-27T05:56:42.361Z,99.90
2023-04-27T05:59:09.675Z,99.90
2023-04-27T06:01:36.712Z,99.90
2023-04-27T06:04:03.837Z,99.90
2023-04-27T06:06:35.192Z,99.90
2023-04-27T06:09:01.748Z,99.90
2023-04-27T06:11:28.519Z,99.90
2023-04-27T06:13:55.148Z,99.90
2023-04-27T06:16:21.836Z,99.80
2023-04-27T06:18:50.545Z,99.40
2023-04-27T06:21:17.391Z,98.70
2023-04-27T06:23:44.054Z,98.30
2023-04-27T06:26:11.012Z,98.10
2023-04-27T06:28:37.599Z,98.00
2023-04-27T06:31:04.470Z,98.00
2023-04-27T06:33:31.001Z,98.10
2023-04-27T06:35:58.275Z,98.10
2023-04-27T06:38:24.893Z,98.00
2023-04-27T06:40:52.970Z,97.60
2023-04-27T06:43:19.648Z,97.40
2023-04-27T06:45:46.407Z,97.00
2023-04-27T06:48:13.153Z,96.60
2023-04-27T06:50:39.972Z,96.40
2023-04-27T06:53:06.560Z,96.70
2023-04-27T06:55:33.129Z,96.90
2023-04-27T06:57:59.762Z,97.70
2023-04-27T07:00:27.026Z,98.10
2023-04-27T07:02:53.642Z,98.60
2023-04-27T07:05:20.522Z,98.70
2023-04-27T07:07:47.041Z,98.70
2023-04-27T07:10:13.629Z,98.60
2023-04-27T07:12:40.748Z,98.70
2023-04-27T07:15:08.074Z,99.20
2023-04-27T07:17:34.835Z,99.20
2023-04-27T07:20:03.986Z,99.30
2023-04-27T07:22:30.590Z,99.00
2023-04-27T07:24:57.177Z,98.70
2023-04-27T07:27:24.507Z,98.40
2023-04-27T07:29:51.032Z,97.70
2023-04-27T07:32:17.832Z,97.60
2023-04-27T07:34:52.523Z,97.30
2023-04-27T07:37:19.931Z,97.40
2023-04-27T07:39:47.228Z,96.80
2023-04-27T07:42:13.826Z,96.60
2023-04-27T07:44:40.739Z,96.00
2023-04-27T07:47:07.654Z,94.10
2023-04-27T07:49:35.452Z,92.90
2023-04-27T07:52:02.048Z,91.60
2023-04-27T07:54:28.649Z,89.50
2023-04-27T07:56:55.304Z,88.70
2023-04-27T07:59:22.082Z,87.90
2023-04-27T08:01:48.791Z,88.80
2023-04-27T08:04:16.301Z,86.80
2023-04-27T08:06:43.685Z,87.30
2023-04-27T08:09:11.300Z,86.90
2023-04-27T08:11:38.189Z,87.60
2023-04-27T08:14:04.765Z,87.90
2023-04-27T08:16:31.410Z,84.30
2023-04-27T08:18:59.907Z,71.10
2023-04-27T08:21:28.368Z,59.80
2023-04-27T08:23:54.923Z,54.10
2023-04-27T08:26:23.415Z,48.70
2023-04-27T08:28:51.096Z,46.20
2023-04-27T08:31:17.716Z,43.50
2023-04-27T08:33:44.291Z,44.20
2023-04-27T08:36:10.812Z,44.80
2023-04-27T08:38:37.440Z,46.60
2023-04-27T08:41:18.062Z,51.00
2023-04-27T08:43:51.321Z,54.10
2023-04-27T08:46:20.129Z,57.60
2023-04-27T08:48:49.712Z,60.10
2023-04-27T08:51:19.848Z,60.50
2023-04-27T08:53:51.354Z,61.20
2023-04-27T08:56:19.299Z,60.60
2023-04-27T08:58:46.393Z,58.10
2023-04-27T09:01:13.063Z,60.10
2023-04-27T09:03:39.860Z,58.50
2023-04-27T09:06:07.463Z,53.40
2023-04-27T09:08:48.769Z,55.00
2023-04-27T09:11:27.588Z,55.40
2023-04-27T09:13:54.250Z,56.30
2023-04-27T09:16:25.156Z,57.60
2023-04-27T09:18:52.166Z,56.50
2023-04-27T09:21:27.645Z,52.00
2023-04-27T09:23:55.617Z,52.00
2023-04-27T09:26:27.429Z,52.90
2023-04-27T09:28:58.629Z,53.40
2023-04-27T09:31:51.629Z,53.90
2023-04-27T09:34:18.200Z,56.20
2023-04-27T09:36:44.900Z,54.60
2023-04-27T09:39:11.804Z,50.50
2023-04-27T09:41:38.620Z,46.70
2023-04-27T09:44:07.228Z,45.00
2023-04-27T09:46:34.341Z,45.40
2023-04-27T09:49:04.177Z,44.90
2023-04-27T09:51:31.743Z,45.60
2023-04-27T09:54:02.880Z,47.80
2023-04-27T09:56:54.033Z,48.90
2023-04-27T09:59:20.625Z,51.10
2023-04-27T10:01:51.285Z,52.30
2023-04-27T10:04:48.401Z,52.60
2023-04-27T10:07:15.678Z,52.50
2023-04-27T10:09:44.854Z,54.70
2023-04-27T10:12:14.413Z,54.80
2023-04-27T10:14:58.001Z,55.70
2023-04-27T10:17:30.004Z,53.30
2023-04-27T10:20:08.835Z,54.10
2023-04-27T10:22:41.016Z,54.20
2023-04-27T10:25:16.388Z,54.90
2023-04-27T10:27:42.974Z,56.90
2023-04-27T10:30:13.752Z,57.20
2023-04-27T10:32:49.846Z,57.00
2023-04-27T10:35:16.640Z,57.30
2023-04-27T10:37:43.622Z,57.30
2023-04-27T10:40:15.022Z,57.10
2023-04-27T10:42:42.146Z,56.90
2023-04-27T10:45:09.331Z,56.60
2023-04-27T10:47:41.319Z,56.50
2023-04-27T10:50:13.614Z,56.00
2023-04-27T10:52:44.372Z,55.10
2023-04-27T10:55:18.899Z,55.70
2023-04-27T10:57:50.730Z,56.80
2023-04-27T11:00:25.661Z,58.10
2023-04-27T11:02:53.844Z,58.60
2023-04-27T11:05:23.215Z,58.90
2023-04-27T11:07:49.829Z,58.60
2023-04-27T11:10:18.378Z,59.50
2023-04-27T11:12:45.732Z,59.20
2023-04-27T11:15:13.940Z,58.50
2023-04-27T11:17:40.995Z,58.70
2023-04-27T11:20:08.622Z,60.60
2023-04-27T11:22:44.786Z,60.80
2023-04-27T11:25:11.695Z,60.10
2023-04-27T11:27:40.616Z,58.60
2023-04-27T11:30:18.346Z,59.40
2023-04-27T11:32:45.248Z,60.00
2023-04-27T11:35:11.826Z,60.00
2023-04-27T11:37:38.466Z,60.70
2023-04-27T11:40:05.649Z,62.20
2023-04-27T11:42:32.310Z,59.10
2023-04-27T11:45:01.104Z,60.00
2023-04-27T11:47:29.637Z,59.10
2023-04-27T11:50:01.011Z,57.90
2023-04-27T11:52:32.006Z,58.10
2023-04-27T11:55:00.226Z,58.70
2023-04-27T11:57:31.391Z,58.20
2023-04-27T12:00:02.413Z,58.40
2023-04-27T12:02:31.100Z,58.40
2023-04-27T12:04:59.543Z,58.60
2023-04-27T12:07:26.891Z,59.40
2023-04-27T12:09:53.546Z,59.00
2023-04-27T12:12:22.761Z,59.30
2023-04-27T12:14:53.399Z,58.80
2023-04-27T12:17:20.023Z,59.40
2023-04-27T12:19:46.521Z,60.10
2023-04-27T12:22:14.373Z,60.10
2023-04-27T12:24:40.944Z,60.90
2023-04-27T12:27:08.232Z,61.50
2023-04-27T12:29:34.811Z,61.50
2023-04-27T12:32:01.660Z,62.40
2023-04-27T12:34:28.485Z,62.50
2023-04-27T12:36:55.209Z,62.90
2023-04-27T12:39:26.666Z,63.00
2023-04-27T12:41:54.107Z,61.40
2023-04-27T12:44:21.775Z,63.60
2023-04-27T12:46:48.720Z,62.60
2023-04-27T12:49:15.659Z,61.40
2023-04-27T12:51:42.297Z,63.20
2023-04-27T12:54:10.439Z,62.70
2023-04-27T12:56:37.112Z,62.00
2023-04-27T12:59:04.252Z,59.90
2023-04-27T13:01:31.489Z,56.90
2023-04-27T13:04:02.437Z,59.80
2023-04-27T13:06:31.150Z,61.80
2023-04-27T13:08:58.479Z,62.00
2023-04-27T13:11:25.748Z,63.00
2023-04-27T13:13:52.435Z,62.80
2023-04-27T13:16:21.496Z,62.30
2023-04-27T13:18:49.715Z,60.40
2023-04-27T13:21:16.532Z,59.60
2023-04-27T13:23:43.036Z,58.50
2023-04-27T13:26:09.706Z,59.80
2023-04-27T13:28:36.276Z,60.90
2023-04-27T13:31:03.916Z,60.90
2023-04-27T13:33:32.092Z,60.50
2023-04-27T13:36:01.965Z,60.50
2023-04-27T13:38:28.914Z,60.80
2023-04-27T13:40:55.662Z,60.80
2023-04-27T13:43:22.210Z,58.90
2023-04-27T13:45:50.702Z,59.00
2023-04-27T13:48:17.338Z,60.80
2023-04-27T13:50:43.878Z,59.20
2023-04-27T13:53:10.568Z,60.70
2023-04-27T13:55:37.276Z,60.60
2023-04-27T13:58:04.606Z,60.10
2023-04-27T14:00:33.527Z,59.10
2023-04-27T14:03:01.418Z,59.80
2023-04-27T14:05:28.443Z,60.00
2023-04-27T14:07:54.987Z,59.20
2023-04-27T14:10:22.779Z,57.10
2023-04-27T14:12:49.469Z,56.90
2023-04-27T14:15:16.231Z,57.70
2023-04-27T14:17:42.829Z,59.70
2023-04-27T14:20:09.490Z,60.50
2023-04-27T14:22:36.879Z,61.00
2023-04-27T14:25:03.630Z,62.90
2023-04-27T14:27:30.199Z,62.40
2023-04-27T14:29:56.838Z,63.90
2023-04-27T14:32:23.490Z,63.10
2023-04-27T14:34:50.426Z,63.10
2023-04-27T14:37:17.518Z,61.60
2023-04-27T14:39:45.393Z,62.70
2023-04-27T14:42:12.087Z,61.80
2023-04-27T14:44:38.686Z,59.80
2023-04-27T14:47:06.205Z,59.30
2023-04-27T14:49:32.776Z,60.10
2023-04-27T14:52:03.064Z,59.30
2023-04-27T14:54:29.618Z,60.50
2023-04-27T14:56:57.564Z,61.00
2023-04-27T14:59:25.292Z,61.10
2023-04-27T15:01:51.990Z,60.90
2023-04-27T15:04:18.830Z,61.00
2023-04-27T15:06:45.801Z,60.40
2023-04-27T15:09:13.317Z,59.60
2023-04-27T15:11:40.023Z,59.30
2023-04-27T15:14:07.222Z,58.90
2023-04-27T15:16:33.942Z,58.50
2023-04-27T15:19:00.670Z,57.90
2023-04-27T15:21:27.179Z,58.20
2023-04-27T15:23:53.715Z,58.10
2023-04-27T15:26:20.367Z,57.80
2023-04-27T15:28:47.228Z,58.20
2023-04-27T15:31:13.854Z,59.80
2023-04-27T15:33:40.633Z,59.60
2023-04-27T15:36:07.361Z,59.60
2023-04-27T15:38:33.898Z,58.60
2023-04-27T15:41:00.506Z,58.70
2023-04-27T15:43:27.101Z,58.90
2023-04-27T15:45:54.056Z,58.60
2023-04-27T15:48:20.575Z,58.70
2023-04-27T15:50:47.212Z,58.50
2023-04-27T15:53:13.796Z,59.20
2023-04-27T15:55:40.589Z,58.90
2023-04-27T15:58:07.138Z,59.40
2023-04-27T16:00:34.896Z,59.40
2023-04-27T16:03:01.789Z,59.90
2023-04-27T16:05:28.623Z,60.50
2023-04-27T16:07:55.151Z,59.50
2023-04-27T16:10:21.688Z,59.50
2023-04-27T16:12:48.258Z,59.60
2023-04-27T16:15:14.862Z,60.20
2023-04-27T16:17:41.561Z,59.60
2023-04-27T16:20:09.429Z,60.30
2023-04-27T16:22:36.815Z,60.50
2023-04-27T16:25:04.323Z,59.80
2023-04-27T16:27:31.516Z,60.10
2023-04-27T16:29:58.063Z,61.00
2023-04-27T16:32:24.743Z,60.20
2023-04-27T16:34:51.411Z,59.80
2023-04-27T16:37:17.952Z,61.10
2023-04-27T16:39:44.810Z,60.90
2023-04-27T16:42:13.332Z,60.10
2023-04-27T16:44:40.206Z,59.90
2023-04-27T16:47:06.822Z,60.00
2023-04-27T16:49:33.760Z,60.00
2023-04-27T16:52:00.348Z,60.40
2023-04-27T16:54:27.745Z,60.50
2023-04-27T16:56:55.295Z,60.20
2023-04-27T16:59:22.291Z,60.10
2023-04-27T17:01:48.898Z,60.80
2023-04-27T17:04:15.708Z,60.60
2023-04-27T17:06:42.301Z,60.70
2023-04-27T17:09:10.048Z,60.60
2023-04-27T17:11:37.230Z,60.50
2023-04-27T17:14:03.856Z,60.80
2023-04-27T17:16:30.449Z,61.70
2023-04-27T17:18:57.137Z,61.70
2023-04-27T17:21:24.969Z,61.20
2023-04-27T17:23:53.006Z,61.00
2023-04-27T17:26:21.405Z,61.00
2023-04-27T17:28:48.967Z,62.20
2023-04-27T17:31:19.210Z,62.70
2023-04-27T17:33:45.926Z,63.10
2023-04-27T17:36:12.860Z,63.20
2023-04-27T17:38:39.389Z,64.00
2023-04-27T17:41:05.981Z,63.40
2023-04-27T17:43:32.754Z,64.00
2023-04-27T17:45:59.361Z,63.90
2023-04-27T17:48:26.069Z,64.20
2023-04-27T17:50:53.387Z,64.70
2023-04-27T17:53:19.947Z,64.70
2023-04-27T17:55:47.542Z,64.80
2023-04-27T17:58:15.340Z,65.00
2023-04-27T18:00:42.690Z,65.40
2023-04-27T18:03:09.733Z,65.70
2023-04-27T18:05:36.725Z,65.80
2023-04-27T18:08:03.436Z,65.70
2023-04-27T18:10:29.970Z,65.30
2023-04-27T18:12:56.530Z,65.60
2023-04-27T18:15:23.290Z,65.90
2023-04-27T18:17:49.868Z,66.50
2023-04-27T18:20:16.485Z,66.70
2023-04-27T18:22:43.021Z,67.70
2023-04-27T18:25:10.389Z,68.40
2023-04-27T18:27:39.795Z,69.50
2023-04-27T18:30:08.192Z,70.30
2023-04-27T18:32:35.269Z,70.00
2023-04-27T18:35:02.666Z,69.80
2023-04-27T18:37:29.454Z,69.30
2023-04-27T18:39:55.987Z,68.90
2023-04-27T18:42:23.432Z,68.80
2023-04-27T18:44:54.546Z,69.50
2023-04-27T18:47:21.259Z,70.20
2023-04-27T18:49:47.959Z,70.40
2023-04-27T18:52:14.498Z,70.50
2023-04-27T18:54:41.105Z,69.60
2023-04-27T18:57:08.834Z,69.20
2023-04-27T18:59:38.608Z,68.30
2023-04-27T19:02:06.761Z,68.20
2023-04-27T19:04:33.817Z,67.80
2023-04-27T19:07:00.769Z,67.60
2023-04-27T19:09:27.360Z,67.70
2023-04-27T19:12:02.408Z,67.80
2023-04-27T19:14:30.574Z,68.00
2023-04-27T19:16:57.238Z,68.00
2023-04-27T19:19:24.695Z,68.00
2023-04-27T19:21:51.299Z,68.10
2023-04-27T19:24:17.884Z,68.00
2023-04-27T19:26:44.620Z,68.80
2023-04-27T19:29:11.494Z,69.30
2023-04-27T19:31:38.135Z,68.20
2023-04-27T19:34:04.813Z,68.30
2023-04-27T19:36:31.847Z,68.80
2023-04-27T19:38:58.392Z,69.00
2023-04-27T19:41:25.159Z,69.20
2023-04-27T19:43:51.759Z,68.70
2023-04-27T19:46:18.339Z,69.00
2023-04-27T19:48:45.002Z,69.20
2023-04-27T19:51:11.741Z,69.30
2023-04-27T19:53:38.854Z,69.60
2023-04-27T19:56:05.548Z,69.60
2023-04-27T19:58:32.285Z,71.00
2023-04-27T20:00:58.838Z,71.30
2023-04-27T20:03:25.700Z,71.30
2023-04-27T20:05:52.897Z,71.20
2023-04-27T20:08:19.626Z,70.20
2023-04-27T20:10:46.247Z,70.40
2023-04-27T20:13:12.785Z,70.60
2023-04-27T20:15:39.325Z,71.30
2023-04-27T20:18:06.155Z,71.60
2023-04-27T20:20:32.703Z,71.20
2023-04-27T20:22:59.275Z,71.90
2023-04-27T20:25:25.911Z,71.90
2023-04-27T20:27:52.427Z,72.70
2023-04-27T20:30:19.024Z,72.50
2023-04-27T20:32:46.444Z,72.30
2023-04-27T20:35:13.029Z,73.20
2023-04-27T20:37:41.772Z,73.60
2023-04-27T20:40:13.446Z,72.80
2023-04-27T20:42:42.290Z,73.60
2023-04-27T20:45:11.314Z,74.50
2023-04-27T20:47:38.231Z,73.10
2023-04-27T20:50:06.177Z,73.00
2023-04-27T20:52:34.534Z,73.70
2023-04-27T20:55:01.640Z,74.00
2023-04-27T20:57:28.190Z,75.10
2023-04-27T20:59:54.838Z,75.20
2023-04-27T21:02:21.489Z,75.10
2023-04-27T21:04:48.111Z,74.80
2023-04-27T21:07:14.714Z,74.90
2023-04-27T21:09:41.531Z,74.20
2023-04-27T21:12:08.639Z,74.30
2023-04-27T21:14:35.733Z,74.90
2023-04-27T21:17:02.339Z,74.90
2023-04-27T21:19:28.946Z,75.70
2023-04-27T21:21:55.894Z,76.00
2023-04-27T21:24:22.682Z,75.90
2023-04-27T21:26:49.326Z,75.40
2023-04-27T21:29:16.352Z,75.20
2023-04-27T21:31:42.846Z,75.30
2023-04-27T21:34:09.388Z,75.70
2023-04-27T21:36:37.087Z,76.50
2023-04-27T21:39:03.820Z,76.30
2023-04-27T21:41:30.376Z,76.20
2023-04-27T21:43:56.939Z,77.00
2023-04-27T21:46:23.867Z,77.60
2023-04-27T21:48:50.715Z,77.10
2023-04-27T21:51:17.334Z,77.40
2023-04-27T21:53:43.860Z,77.00
2023-04-27T21:56:10.581Z,77.20
2023-04-27T21:58:37.174Z,77.00
2023-04-27T22:01:03.784Z,77.20
2023-04-27T22:03:30.714Z,77.40
2023-04-27T22:05:59.237Z,77.90
2023-04-27T22:08:25.847Z,78.10
2023-04-27T22:10:52.414Z,78.40
2023-04-27T22:13:19.788Z,78.80
2023-04-27T22:15:47.848Z,78.90
2023-04-27T22:18:15.494Z,79.30
2023-04-27T22:20:43.269Z,79.40
2023-04-27T22:23:10.672Z,79.30
2023-04-27T22:25:37.428Z,79.40
2023-04-27T22:28:04.067Z,79.80
2023-04-27T22:30:31.030Z,80.20
2023-04-27T22:32:57.813Z,80.20
2023-04-27T22:35:27.501Z,80.60
2023-04-27T22:37:55.910Z,80.50
2023-04-27T22:40:22.843Z,80.70
2023-04-27T22:42:49.473Z,81.10
2023-04-27T22:45:16.219Z,81.20
2023-04-27T22:47:44.349Z,81.30
2023-04-27T22:50:11.796Z,81.40
2023-04-27T22:52:41.849Z,81.70
2023-04-27T22:55:09.310Z,82.40
2023-04-27T22:57:35.876Z,82.60
2023-04-27T23:00:05.591Z,82.60
2023-04-27T23:02:32.531Z,82.60
2023-04-27T23:04:59.285Z,83.10
2023-04-27T23:07:25.906Z,83.10
2023-04-27T23:09:52.677Z,84.10
2023-04-27T23:12:20.549Z,84.60
2023-04-27T23:14:47.191Z,85.20
2023-04-27T23:17:15.270Z,85.30
2023-04-27T23:19:41.916Z,85.70
2023-04-27T23:22:08.459Z,85.00
2023-04-27T23:24:35.149Z,85.10
2023-04-27T23:27:01.691Z,85.30
2023-04-27T23:29:28.436Z,85.30
2023-04-27T23:31:55.002Z,85.80
2023-04-27T23:34:21.580Z,86.80
2023-04-27T23:36:48.104Z,87.30
2023-04-27T23:39:14.593Z,87.40
2023-04-27T23:41:41.248Z,87.30
2023-04-27T23:44:08.292Z,87.90
2023-04-27T23:46:34.844Z,87.90
2023-04-27T23:49:01.472Z,88.00
2023-04-27T23:51:28.083Z,87.90
2023-04-27T23:53:54.680Z,87.70
2023-04-27T23:56:22.911Z,87.50
2023-04-27T23:58:49.598Z,87.70
